Harare Kutsaga, Zimbabwe

4:16 AM CAT on August 25, 2016 (GMT +0200)
Harare International | | Change Station

Elev 4856 ft 17.92 °S, 31.13 °E | Updated 1 hour ago

Clear
Clear
45 °F
Feels Like 41 °F
N
6
Wind Variable Wind from East

Today
High -- | Low -- °F
--% Chance of Precip.
Yesterday
High -- | Low -- °F
Precip. -- in
Pressure 30.33 in
Visibility -9999.0 miles
Clouds
Windchill 41 °F
Dew Point 41 °F
Humidity 87%
Rainfall 0.00 in
Snow Depth Not available.
6:07 AM 5:47 PM
Waning Gibbous, 51% visible
METAR FVHA 250100Z 08005KT CAVOK 07/05 Q1027 NOSIG
Pressure 30.33 in
Visibility -9999.0 miles
Clouds
Windchill 41 °F
Dew Point 41 °F
Humidity 87%
Rainfall 0.00 in
Snow Depth Not available.
6:07 AM 5:47 PM
Waning Gibbous, 51% visible
METAR FVHA 250100Z 08005KT CAVOK 07/05 Q1027 NOSIG

10-Day Weather Forecast

No radar image for this location.
×

Almanac

Astronomy

Aug. 25, 2016 Rise Set
Actual Time
Civil Twilight
Nautical Twilight
Astronomical Twilight
Moon
Length of Visible Light
Length of Day
Tomorrow will be .
, % of the Moon is Illuminated

Today's Extremes

Country Highs Country Lows

Community

WunderPhotos

Upload Photos

1,934,776 photos uploaded!

WunderBlog® & News

Nearby

Air Quality

  Air Quality AQ Index Pollutant
Not available.

Snow Depth

Station Depth Elevation

Earthquake Activity

City Distance Mag. Time & Date
Minimum magnitude displayed is 2.5.

Coastal Water Temperatures

Place Temperature

Stations

Nearby Weather Stations

Station Location Temp. Windchill Dew Point Humidity Wind Precip. Elev Updated Type